Time;durP1;ratioP1;P1;durP2;ratioP2;P2;SDS_P1;SDS_P2;PMS_P1;PMS_P2;Temp;Humidity;BMP_temperature;BMP_pressure;BME280_temperature;BME280_humidity;BME280_pressure;Samples;Min_cycle;Max_cycle;Signal;HPM_P1;HPM_P2
2021/11/18 00:00:34;;;;;;;82.00;36.53;;;;;;;-1.66;83.19;98369.34;1700215;84;20989;-88
2021/11/18 00:03:05;;;;;;;74.03;33.65;;;;;;;-1.67;83.45;98368.89;1700211;84;21080;-85
2021/11/18 00:05:33;;;;;;;70.28;32.45;;;;;;;-1.67;83.15;98373.23;1701481;83;21088;-84
2021/11/18 00:08:01;;;;;;;72.22;32.33;;;;;;;-1.68;83.27;98377.95;1713798;83;21433;-85
2021/11/18 00:10:41;;;;;;;70.35;31.33;;;;;;;-1.70;83.20;98377.05;1666572;84;21071;-83
2021/11/18 00:13:13;;;;;;;72.87;33.35;;;;;;;-1.73;82.97;98379.14;1723524;83;21018;-85
2021/11/18 00:15:42;;;;;;;75.92;32.63;;;;;;;-1.75;83.25;98380.40;1728077;83;20994;-86
2021/11/18 00:18:13;;;;;;;66.47;31.17;;;;;;;-1.78;83.19;98375.11;1703055;83;21012;-85
2021/11/18 00:20:45;;;;;;;78.33;32.42;;;;;;;-1.78;83.08;98374.25;1714062;83;20990;-85
2021/11/18 00:23:12;;;;;;;76.15;33.40;;;;;;;-1.84;83.17;98372.80;1729049;83;21029;-87
2021/11/18 00:25:39;;;;;;;74.42;31.85;;;;;;;-1.83;83.18;98374.11;1715727;83;21052;-87
2021/11/18 00:28:06;;;;;;;69.07;31.20;;;;;;;-1.84;83.32;98372.80;1700349;83;21420;-87
2021/11/18 00:30:35;;;;;;;67.37;30.15;;;;;;;-1.83;83.30;98383.20;1728879;83;21077;-88
2021/11/18 00:33:04;;;;;;;67.78;31.40;;;;;;;-1.83;83.15;98385.80;1673890;85;20997;-88
2021/11/18 00:35:34;;;;;;;70.28;32.55;;;;;;;-1.89;83.03;98389.14;1701603;83;20997;-85
2021/11/18 00:38:01;;;;;;;69.53;32.20;;;;;;;-1.94;83.18;98386.84;1673540;84;21082;-84
2021/11/18 00:40:39;;;;;;;71.82;31.62;;;;;;;-1.91;83.37;98388.20;1671372;86;21059;-84
2021/11/18 00:43:10;;;;;;;67.85;31.10;;;;;;;-1.94;83.26;98392.03;1672083;85;21135;-84
2021/11/18 00:45:39;;;;;;;74.03;31.40;;;;;;;-1.95;83.34;98392.84;1695519;84;21007;-90
2021/11/18 00:48:07;;;;;;;77.45;34.00;;;;;;;-1.95;83.33;98388.09;1695370;85;21413;-87
2021/11/18 00:50:39;;;;;;;82.15;35.73;;;;;;;-1.97;83.54;98391.94;1695344;84;21011;-87
2021/11/18 00:53:07;;;;;;;76.65;34.67;;;;;;;-1.95;83.80;98390.69;1674387;85;21075;-86
2021/11/18 00:55:35;;;;;;;76.02;33.53;;;;;;;-1.97;83.97;98392.34;1685388;85;21000;-87
2021/11/18 00:58:05;;;;;;;77.45;33.83;;;;;;;-1.97;83.91;98388.05;1685540;85;21056;-86
2021/11/18 01:00:38;;;;;;;63.80;29.87;;;;;;;-1.94;83.96;98382.05;1685511;85;21504;-85
2021/11/18 01:03:06;;;;;;;70.85;30.85;;;;;;;-1.97;83.55;98389.75;1685543;85;21055;-91
2021/11/18 01:05:39;;;;;;;74.37;33.13;;;;;;;-1.97;83.57;98389.75;1685583;85;21020;-86
2021/11/18 01:08:08;;;;;;;68.13;31.57;;;;;;;-1.99;83.54;98386.70;1685888;85;21433;-87
2021/11/18 01:10:41;;;;;;;73.60;31.33;;;;;;;-2.01;83.58;98387.09;1685491;85;21389;-84
2021/11/18 01:13:09;;;;;;;71.35;33.20;;;;;;;-1.99;83.56;98380.20;1685626;85;21031;-83
2021/11/18 01:15:41;;;;;;;70.87;33.05;;;;;;;-1.99;83.71;98385.40;1667980;85;21000;-86
2021/11/18 01:18:09;;;;;;;66.65;32.25;;;;;;;-2.02;83.57;98381.84;1685535;85;21524;-84
2021/11/18 01:20:38;;;;;;;72.45;32.33;;;;;;;-2.02;83.48;98390.94;1685711;85;21028;-85
2021/11/18 01:23:10;;;;;;;69.40;31.65;;;;;;;-2.07;83.67;98383.04;1685590;85;21357;-84
2021/11/18 01:25:38;;;;;;;67.30;31.33;;;;;;;-2.09;83.67;98383.80;1657126;86;21425;-85
2021/11/18 01:28:07;;;;;;;80.15;32.10;;;;;;;-2.13;83.88;98385.44;1640569;86;21060;-85
2021/11/18 01:30:37;;;;;;;80.90;33.15;;;;;;;-2.16;84.04;98385.37;1640322;87;21048;-88
2021/11/18 01:33:08;;;;;;;65.00;29.63;;;;;;;-2.14;83.68;98390.19;1667842;86;21396;-83
2021/11/18 01:35:39;;;;;;;68.45;29.85;;;;;;;-2.17;84.02;98393.58;1668722;85;21088;-84
2021/11/18 01:38:08;;;;;;;74.82;31.30;;;;;;;-2.17;83.83;98397.47;1645129;85;21465;-86
2021/11/18 01:40:42;;;;;;;70.17;30.65;;;;;;;-2.18;83.82;98395.72;1689216;84;21489;-84
2021/11/18 01:43:19;;;;;;;72.42;32.48;;;;;;;-2.19;84.14;98389.18;1699885;84;21036;-84
2021/11/18 01:45:48;;;;;;;62.98;28.50;;;;;;;-2.17;83.81;98390.09;1707130;84;21064;-82
2021/11/18 01:48:17;;;;;;;68.50;30.30;;;;;;;-2.20;83.85;98384.83;1707380;84;21008;-82
2021/11/18 01:50:49;;;;;;;67.60;28.30;;;;;;;-2.23;83.82;98389.52;1685263;84;21020;-78
2021/11/18 01:53:21;;;;;;;71.77;29.72;;;;;;;-2.21;83.81;98390.42;1670270;84;20992;-78
2021/11/18 01:55:48;;;;;;;71.82;28.92;;;;;;;-2.23;83.89;98385.63;1700711;84;21048;-78
2021/11/18 01:58:18;;;;;;;61.00;29.27;;;;;;;-2.23;83.90;98388.22;1700899;84;21015;-78
2021/11/18 02:00:58;;;;;;;63.48;27.60;;;;;;;-2.24;83.69;98391.66;1640284;86;21010;-78
2021/11/18 02:03:25;;;;;;;54.75;26.55;;;;;;;-2.28;83.86;98386.77;1650292;86;21025;-78
2021/11/18 02:06:27;;;;;;;58.00;26.27;;;;;;;-2.25;83.76;98389.88;1671327;85;21021;-78
2021/11/18 02:08:54;;;;;;;51.63;25.30;;;;;;;-2.30;83.63;98387.16;1668634;84;21036;-78
2021/11/18 02:11:38;;;;;;;58.60;27.58;;;;;;;-2.32;83.79;98388.82;1701226;84;21477;-78
2021/11/18 02:14:09;;;;;;;59.90;26.48;;;;;;;-2.33;83.65;98383.61;1706467;84;21137;-78
2021/11/18 02:16:39;;;;;;;60.92;27.05;;;;;;;-2.35;83.80;98382.67;1677154;84;21020;-78
2021/11/18 02:19:10;;;;;;;66.45;28.92;;;;;;;-2.35;83.69;98383.97;1707503;84;20984;-79
2021/11/18 02:21:40;;;;;;;67.78;29.50;;;;;;;-2.40;83.74;98382.11;1679391;84;21048;-78
2021/11/18 02:24:12;;;;;;;64.12;29.07;;;;;;;-2.41;83.86;98382.09;1671569;86;21411;-82
2021/11/18 02:26:40;;;;;;;67.55;29.00;;;;;;;-2.42;83.67;98385.50;1649623;86;21083;-81
2021/11/18 02:29:08;;;;;;;68.17;30.62;;;;;;;-2.46;83.73;98388.44;1671540;84;20960;-80
2021/11/18 02:31:45;;;;;;;60.08;26.37;;;;;;;-2.46;83.78;98389.73;1704383;84;21024;-80
2021/11/18 02:34:25;;;;;;;65.22;27.85;;;;;;;-2.47;83.83;98392.28;1707282;84;21047;-80
2021/11/18 02:36:52;;;;;;;64.77;28.73;;;;;;;-2.50;84.14;98383.98;1712091;82;21040;-80
2021/11/18 02:39:18;;;;;;;59.77;26.55;;;;;;;-2.53;83.94;98382.19;1712207;83;21052;-80
2021/11/18 02:41:45;;;;;;;61.28;27.05;;;;;;;-2.51;84.23;98387.42;1732466;83;21451;-80
2021/11/18 02:44:12;;;;;;;56.02;26.48;;;;;;;-2.47;84.07;98385.79;1738040;83;21063;-80
2021/11/18 02:46:39;;;;;;;59.67;25.37;;;;;;;-2.49;83.96;98387.03;1737914;83;21064;-80
2021/11/18 02:49:06;;;;;;;55.85;26.23;;;;;;;-2.52;83.97;98385.67;1710996;83;21056;-80
2021/11/18 02:51:35;;;;;;;51.23;24.50;;;;;;;-2.51;83.88;98388.72;1689382;85;21024;-80
2021/11/18 02:54:03;;;;;;;57.83;25.60;;;;;;;-2.52;83.96;98384.38;1689282;84;21025;-80
2021/11/18 02:56:32;;;;;;;58.25;25.97;;;;;;;-2.55;83.96;98382.97;1689275;84;21068;-80
2021/11/18 02:59:00;;;;;;;50.88;24.23;;;;;;;-2.52;84.24;98396.05;1713104;83;21016;-80
2021/11/18 03:01:32;;;;;;;50.83;23.60;;;;;;;-2.50;84.33;98395.66;1737851;83;21084;-80
2021/11/18 03:04:01;;;;;;;49.53;22.67;;;;;;;-2.48;84.12;98397.91;1737821;83;21008;-80
2021/11/18 03:06:29;;;;;;;52.15;22.90;;;;;;;-2.49;84.01;98400.45;1737953;83;21076;-80
2021/11/18 03:08:56;;;;;;;49.93;23.02;;;;;;;-2.52;84.01;98390.86;1715798;83;21378;-80
2021/11/18 03:11:27;;;;;;;50.28;23.10;;;;;;;-2.52;83.95;98395.62;1689359;85;21037;-80
2021/11/18 03:13:54;;;;;;;51.75;22.77;;;;;;;-2.52;83.96;98399.95;1689389;85;21057;-80
2021/11/18 03:16:22;;;;;;;53.60;23.38;;;;;;;-2.56;83.82;98405.47;1689205;84;21001;-80
2021/11/18 03:18:50;;;;;;;47.55;23.55;;;;;;;-2.57;84.00;98408.02;1708292;83;20971;-79
2021/11/18 03:21:21;;;;;;;49.93;22.75;;;;;;;-2.59;83.96;98407.97;1737838;83;21024;-80
2021/11/18 03:23:50;;;;;;;48.98;21.85;;;;;;;-2.60;83.92;98402.31;1737772;83;21015;-80
2021/11/18 03:26:21;;;;;;;47.03;21.95;;;;;;;-2.63;83.87;98406.11;1737833;83;21060;-80
2021/11/18 03:28:48;;;;;;;49.08;23.07;;;;;;;-2.63;84.18;98411.73;1687778;84;20976;-80
2021/11/18 03:31:18;;;;;;;46.92;22.75;;;;;;;-2.65;83.88;98407.80;1672785;84;21969;-80
2021/11/18 03:33:59;;;;;;;57.30;22.90;;;;;;;-2.66;83.91;98412.52;1702873;84;21032;-80
2021/11/18 03:36:28;;;;;;;53.73;23.45;;;;;;;-2.68;83.96;98405.98;1703112;84;20997;-79
2021/11/18 03:38:57;;;;;;;52.08;22.95;;;;;;;-2.69;83.86;98400.30;1691709;83;20997;-79
2021/11/18 03:41:31;;;;;;;50.78;23.75;;;;;;;-2.72;83.89;98407.13;1689068;85;21499;-80
2021/11/18 03:44:02;;;;;;;51.73;23.52;;;;;;;-2.71;83.94;98406.28;1688948;85;20997;-80
2021/11/18 03:46:34;;;;;;;46.55;20.48;;;;;;;-2.74;83.93;98400.59;1692044;83;21020;-79
2021/11/18 03:49:03;;;;;;;45.70;20.88;;;;;;;-2.76;84.02;98393.19;1730314;83;21436;-80
2021/11/18 03:51:32;;;;;;;49.95;21.48;;;;;;;-2.77;83.98;98394.03;1730220;83;21016;-80
2021/11/18 03:54:02;;;;;;;43.33;20.10;;;;;;;-2.77;84.02;98400.52;1730223;83;21048;-80
2021/11/18 03:56:38;;;;;;;44.60;20.48;;;;;;;-2.78;83.95;98397.47;1699494;83;21016;-80
2021/11/18 03:59:02;;;;;;;46.60;22.00;;;;;;;-2.79;83.92;98398.27;1695454;84;21012;-80
2021/11/18 04:01:29;;;;;;;48.05;21.75;;;;;;;-2.81;84.05;98393.47;1696052;85;21041;-81
2021/11/18 04:03:55;;;;;;;47.60;21.37;;;;;;;-2.80;83.96;98393.92;1696083;84;21016;-81
2021/11/18 04:06:23;;;;;;;50.75;22.05;;;;;;;-2.82;83.94;98400.36;1696052;83;21440;-80
2021/11/18 04:08:57;;;;;;;44.73;20.23;;;;;;;-2.81;84.14;98396.06;1666628;86;20993;-80
2021/11/18 04:11:26;;;;;;;47.55;22.00;;;;;;;-2.81;83.97;98400.84;1667964;86;21075;-80
2021/11/18 04:13:53;;;;;;;49.10;21.75;;;;;;;-2.83;84.02;98397.75;1667886;86;21444;-80
2021/11/18 04:16:21;;;;;;;43.08;20.25;;;;;;;-2.82;83.97;98405.98;1668073;86;21064;-81
2021/11/18 04:18:47;;;;;;;43.78;21.23;;;;;;;-2.84;84.06;98408.53;1690226;83;20985;-81
2021/11/18 04:21:14;;;;;;;46.30;20.48;;;;;;;-2.86;83.95;98407.58;1689252;84;21444;-81
2021/11/18 04:23:41;;;;;;;44.83;22.42;;;;;;;-2.85;84.00;98407.17;1689454;84;20965;-80
2021/11/18 04:26:08;;;;;;;42.70;20.77;;;;;;;-2.87;83.95;98407.13;1689321;85;21021;-80
2021/11/18 04:28:36;;;;;;;42.45;20.92;;;;;;;-2.86;83.93;98410.17;1725159;83;20976;-81
2021/11/18 04:31:08;;;;;;;49.38;21.57;;;;;;;-2.89;83.91;98405.31;1730332;83;21075;-82
2021/11/18 04:33:36;;;;;;;44.65;20.70;;;;;;;-2.91;83.94;98405.27;1729530;83;21414;-82
2021/11/18 04:36:08;;;;;;;45.17;20.77;;;;;;;-2.88;83.97;98405.77;1701496;83;21016;-82
2021/11/18 04:38:34;;;;;;;43.17;20.77;;;;;;;-2.90;83.96;98404.86;1684030;83;21023;-82
2021/11/18 04:41:02;;;;;;;45.78;21.30;;;;;;;-2.89;84.15;98404.02;1673555;86;21012;-82
2021/11/18 04:43:30;;;;;;;49.35;21.10;;;;;;;-2.87;84.13;98405.83;1673554;86;21019;-82
2021/11/18 04:45:58;;;;;;;47.10;20.95;;;;;;;-2.89;84.23;98411.80;1705158;82;20960;-82
2021/11/18 04:48:25;;;;;;;45.83;19.37;;;;;;;-2.89;84.16;98424.37;1739267;82;21019;-82
2021/11/18 04:50:54;;;;;;;43.40;19.98;;;;;;;-2.88;84.10;98419.63;1739544;82;21456;-82
2021/11/18 04:53:21;;;;;;;44.23;19.20;;;;;;;-2.89;84.02;98426.06;1739420;82;21012;-82
2021/11/18 04:55:48;;;;;;;44.45;19.50;;;;;;;-2.88;83.96;98423.52;1693654;84;20976;-82
2021/11/18 04:58:15;;;;;;;45.70;21.85;;;;;;;-2.89;83.93;98432.55;1702390;84;21481;-82
2021/11/18 05:00:48;;;;;;;41.68;19.52;;;;;;;-2.90;83.89;98434.69;1674954;84;21032;-82
2021/11/18 05:03:17;;;;;;;43.48;20.32;;;;;;;-2.92;83.97;98432.94;1675559;83;21017;-82
2021/11/18 05:05:46;;;;;;;43.73;19.70;;;;;;;-2.92;84.06;98434.62;1712193;83;21075;-82
2021/11/18 05:08:14;;;;;;;40.17;19.98;;;;;;;-2.95;83.82;98443.20;1700615;84;21469;-82
2021/11/18 05:10:45;;;;;;;42.58;20.20;;;;;;;-2.97;83.95;98432.31;1701277;82;20996;-82
2021/11/18 05:13:19;;;;;;;40.98;19.12;;;;;;;-2.98;83.92;98443.52;1700700;84;21468;-82
2021/11/18 05:15:50;;;;;;;47.38;21.73;;;;;;;-2.99;84.00;98446.52;1699366;84;21433;-82
2021/11/18 05:18:18;;;;;;;47.53;20.80;;;;;;;-2.94;84.35;98441.50;1709159;83;21472;-82
2021/11/18 05:20:46;;;;;;;48.02;21.75;;;;;;;-2.92;84.04;98455.38;1737794;82;21011;-81
2021/11/18 05:23:16;;;;;;;47.15;22.02;;;;;;;-2.93;84.15;98457.52;1739307;82;21071;-82
2021/11/18 05:25:46;;;;;;;49.10;22.00;;;;;;;-2.95;84.46;98452.28;1738044;82;21015;-82
2021/11/18 05:28:13;;;;;;;46.88;20.43;;;;;;;-2.93;85.02;98452.33;1739471;82;21094;-81
2021/11/18 05:30:41;;;;;;;46.60;21.62;;;;;;;-2.91;84.45;98462.33;1706401;82;20941;-82
2021/11/18 05:33:12;;;;;;;46.60;20.57;;;;;;;-2.87;84.20;98469.37;1702314;83;21418;-81
2021/11/18 05:35:40;;;;;;;41.42;19.67;;;;;;;-2.88;84.07;98473.21;1702313;84;21433;-81
2021/11/18 05:38:09;;;;;;;45.17;20.02;;;;;;;-2.91;84.36;98470.11;1662649;84;21480;-81
2021/11/18 05:40:39;;;;;;;44.67;19.07;;;;;;;-2.93;84.00;98473.97;1650821;86;21071;-81
2021/11/18 05:43:07;;;;;;;43.70;21.50;;;;;;;-2.93;84.19;98477.86;1671787;86;20968;-79
2021/11/18 05:45:36;;;;;;;42.50;19.45;;;;;;;-2.90;84.08;98482.27;1669595;86;21095;-79
2021/11/18 05:48:06;;;;;;;41.68;19.10;;;;;;;-2.89;84.07;98483.13;1671443;86;21448;-79
2021/11/18 05:50:35;;;;;;;39.65;19.98;;;;;;;-2.90;83.98;98481.38;1671677;86;21031;-80
2021/11/18 05:53:03;;;;;;;46.28;21.30;;;;;;;-2.86;84.12;98484.09;1671701;86;21058;-79
2021/11/18 05:55:34;;;;;;;44.13;20.12;;;;;;;-2.85;84.02;98493.67;1668939;86;21027;-81
2021/11/18 05:58:01;;;;;;;40.00;19.95;;;;;;;-2.86;84.15;98497.07;1645633;85;21016;-80
2021/11/18 06:00:31;;;;;;;40.05;18.57;;;;;;;-2.80;84.24;98495.10;1684809;85;21504;-80
2021/11/18 06:02:57;;;;;;;46.23;19.92;;;;;;;-2.76;84.21;98495.67;1641074;87;21063;-80
2021/11/18 06:05:27;;;;;;;47.90;22.82;;;;;;;-2.70;84.31;98497.15;1647477;86;21051;-80
2021/11/18 06:07:55;;;;;;;50.43;23.57;;;;;;;-2.61;84.19;98504.77;1668253;86;21020;-80
2021/11/18 06:10:25;;;;;;;58.95;26.48;;;;;;;-2.56;84.20;98504.09;1668352;86;21504;-81
2021/11/18 06:12:55;;;;;;;51.42;23.65;;;;;;;-2.43;84.38;98497.56;1668428;86;21003;-80
2021/11/18 06:15:26;;;;;;;52.90;23.70;;;;;;;-2.40;84.43;98502.82;1667946;86;21520;-79
2021/11/18 06:17:59;;;;;;;49.45;23.87;;;;;;;-2.36;84.30;98502.52;1653480;86;20964;-81
2021/11/18 06:20:28;;;;;;;49.50;23.38;;;;;;;-2.31;84.19;98508.73;1669180;86;21052;-82
2021/11/18 06:22:56;;;;;;;53.90;24.77;;;;;;;-2.24;84.18;98511.50;1669416;86;21400;-81
2021/11/18 06:25:27;;;;;;;58.78;24.92;;;;;;;-2.19;84.14;98512.52;1668914;86;21079;-82
2021/11/18 06:27:54;;;;;;;51.92;23.98;;;;;;;-2.16;83.81;98513.92;1649176;87;21007;-82
2021/11/18 06:30:28;;;;;;;47.03;22.80;;;;;;;-2.12;84.05;98512.75;1644689;87;21088;-82
2021/11/18 06:32:56;;;;;;;43.92;22.77;;;;;;;-2.02;83.94;98516.91;1626244;87;20980;-81
2021/11/18 06:35:26;;;;;;;51.15;22.77;;;;;;;-1.94;83.96;98511.94;1642337;86;21504;-81
2021/11/18 06:37:53;;;;;;;51.75;23.73;;;;;;;-1.88;83.76;98513.00;1626678;87;21170;-82
2021/11/18 06:40:22;;;;;;;48.33;23.92;;;;;;;-1.77;83.66;98515.02;1641990;87;21273;-82
2021/11/18 06:42:49;;;;;;;57.62;23.75;;;;;;;-1.66;83.75;98517.93;1660590;86;21420;-80
2021/11/18 06:45:38;;;;;;;50.05;23.85;;;;;;;-1.60;83.44;98512.48;1667885;86;21063;-80
2021/11/18 06:48:07;;;;;;;48.30;23.57;;;;;;;-1.51;83.51;98509.66;1640656;87;21012;-81
2021/11/18 06:50:34;;;;;;;51.30;23.10;;;;;;;-1.41;83.69;98515.55;1647588;87;21107;-82
2021/11/18 06:53:03;;;;;;;53.65;23.73;;;;;;;-1.28;83.54;98506.39;1648979;86;21037;-82
2021/11/18 06:55:30;;;;;;;46.42;21.97;;;;;;;-1.20;83.39;98509.19;1595730;87;21096;-81
2021/11/18 06:58:00;;;;;;;52.88;24.18;;;;;;;-1.12;83.26;98504.18;1640343;87;21533;-82
2021/11/18 07:00:27;;;;;;;48.87;22.93;;;;;;;-1.03;83.06;98506.13;1676247;86;21074;-80
2021/11/18 07:02:54;;;;;;;56.88;24.50;;;;;;;-0.97;83.07;98508.88;1663118;86;21000;-79
2021/11/18 07:05:23;;;;;;;51.40;23.55;;;;;;;-0.89;82.96;98506.45;1666530;86;20999;-79
2021/11/18 07:07:51;;;;;;;51.53;24.12;;;;;;;-0.87;82.68;98521.70;1646574;87;21094;-80
2021/11/18 07:10:18;;;;;;;52.13;25.48;;;;;;;-0.80;82.89;98525.80;1678689;85;21051;-79
2021/11/18 07:12:48;;;;;;;52.27;24.37;;;;;;;-0.72;82.77;98514.27;1672552;86;21024;-82
2021/11/18 07:15:15;;;;;;;48.48;23.52;;;;;;;-0.65;82.40;98518.31;1670455;86;21071;-77
2021/11/18 07:17:41;;;;;;;49.20;24.77;;;;;;;-0.60;82.56;98520.19;1670562;86;21066;-78
2021/11/18 07:20:09;;;;;;;50.23;25.55;;;;;;;-0.50;82.59;98521.27;1649255;86;21055;-81
2021/11/18 07:22:37;;;;;;;57.20;25.60;;;;;;;-0.42;82.41;98521.03;1663383;86;21012;-85
2021/11/18 07:25:11;;;;;;;52.65;25.65;;;;;;;-0.31;82.86;98517.79;1641432;86;21075;-83
2021/11/18 07:27:39;;;;;;;51.90;24.87;;;;;;;-0.21;82.36;98518.45;1639661;87;21007;-83
2021/11/18 07:30:08;;;;;;;55.17;26.75;;;;;;;-0.10;82.17;98515.20;1624313;87;21450;-83
2021/11/18 07:32:35;;;;;;;52.55;23.80;;;;;;;-0.08;81.66;98512.22;1653096;86;21047;-83
2021/11/18 07:35:03;;;;;;;53.17;25.30;;;;;;;-0.02;81.87;98518.44;1670052;86;21043;-83
2021/11/18 07:37:31;;;;;;;53.55;26.52;;;;;;;0.08;81.65;98512.98;1670334;86;21433;-83
2021/11/18 07:40:07;;;;;;;59.13;26.87;;;;;;;0.13;81.40;98510.05;1668808;84;21035;-83
2021/11/18 07:42:34;;;;;;;55.73;27.97;;;;;;;0.21;81.49;98519.77;1736308;82;20995;-82
2021/11/18 07:45:23;;;;;;;55.95;27.48;;;;;;;0.26;81.15;98520.74;1739587;82;21436;-84
2021/11/18 07:47:52;;;;;;;55.17;25.85;;;;;;;0.29;81.00;98521.23;1739536;82;21039;-84
2021/11/18 07:50:21;;;;;;;52.10;25.97;;;;;;;0.34;81.16;98518.28;1739299;82;21404;-84
2021/11/18 07:52:49;;;;;;;58.23;27.95;;;;;;;0.41;81.10;98511.02;1708853;82;20984;-84
2021/11/18 07:55:20;;;;;;;60.30;27.73;;;;;;;0.48;81.03;98516.83;1710575;82;20997;-84
2021/11/18 07:57:47;;;;;;;59.60;27.65;;;;;;;0.50;81.00;98512.51;1672585;85;21040;-84
2021/11/18 08:00:19;;;;;;;61.80;28.90;;;;;;;0.54;80.77;98521.70;1672635;86;21048;-83
2021/11/18 08:02:46;;;;;;;52.67;27.65;;;;;;;0.54;80.66;98519.96;1679055;85;20991;-84
2021/11/18 08:05:15;;;;;;;53.30;28.27;;;;;;;0.59;80.80;98530.09;1673948;84;20990;-84
2021/11/18 08:07:42;;;;;;;50.52;27.35;;;;;;;0.64;80.83;98523.23;1686897;85;21029;-84
2021/11/18 08:10:11;;;;;;;59.58;28.87;;;;;;;0.70;80.85;98528.10;1686926;84;20978;-84
2021/11/18 08:12:41;;;;;;;60.33;29.27;;;;;;;0.74;80.78;98525.56;1671674;82;20992;-84
2021/11/18 08:15:12;;;;;;;63.20;30.32;;;;;;;0.79;80.70;98529.58;1739509;82;20980;-84
2021/11/18 08:17:40;;;;;;;58.00;29.07;;;;;;;0.85;80.74;98537.93;1730920;82;21473;-84
2021/11/18 08:20:09;;;;;;;58.23;31.25;;;;;;;0.89;80.55;98531.92;1703706;82;20960;-84
2021/11/18 08:22:41;;;;;;;57.05;30.00;;;;;;;0.93;80.21;98537.65;1739606;82;21421;-84
2021/11/18 08:25:10;;;;;;;56.25;29.32;;;;;;;0.88;80.12;98530.17;1739649;82;20968;-84
2021/11/18 08:27:41;;;;;;;60.80;29.98;;;;;;;0.89;80.28;98531.92;1739290;82;21075;-84
2021/11/18 08:30:15;;;;;;;60.55;29.48;;;;;;;0.95;80.34;98537.69;1712996;82;20980;-84
2021/11/18 08:32:44;;;;;;;54.40;28.12;;;;;;;0.99;80.43;98540.80;1702226;84;21019;-84
2021/11/18 08:35:15;;;;;;;64.87;30.85;;;;;;;0.97;80.04;98545.10;1700654;84;21067;-83
2021/11/18 08:37:47;;;;;;;56.02;28.32;;;;;;;0.98;80.46;98547.75;1702190;84;20996;-83
2021/11/18 08:40:17;;;;;;;54.60;28.02;;;;;;;1.02;80.63;98541.73;1699725;82;21025;-83
2021/11/18 08:42:46;;;;;;;54.88;27.58;;;;;;;1.05;80.43;98548.29;1702319;84;21509;-83
2021/11/18 08:45:13;;;;;;;60.03;29.10;;;;;;;1.13;80.30;98548.88;1702293;84;21052;-83
2021/11/18 08:47:40;;;;;;;52.67;26.97;;;;;;;1.17;80.28;98543.71;1702099;84;21028;-83
2021/11/18 08:50:13;;;;;;;54.63;27.13;;;;;;;1.19;79.57;98539.83;1705683;82;20992;-83
2021/11/18 08:52:40;;;;;;;61.70;31.07;;;;;;;1.22;80.10;98539.89;1702545;84;21004;-83
2021/11/18 08:55:12;;;;;;;52.05;27.10;;;;;;;1.30;80.20;98536.95;1702289;84;21039;-83
2021/11/18 08:57:41;;;;;;;52.30;26.47;;;;;;;1.35;79.78;98538.77;1702205;83;21000;-83
2021/11/18 09:00:23;;;;;;;58.70;26.68;;;;;;;1.39;79.70;98545.80;1702702;82;20996;-83
2021/11/18 09:02:56;;;;;;;51.77;26.93;;;;;;;1.43;79.62;98547.20;1700975;84;21018;-83
2021/11/18 09:05:26;;;;;;;53.48;27.58;;;;;;;1.47;79.59;98540.29;1702661;84;21067;-83
2021/11/18 09:07:54;;;;;;;53.50;28.55;;;;;;;1.52;79.21;98540.34;1702685;82;21008;-82
2021/11/18 09:10:21;;;;;;;57.67;31.25;;;;;;;1.52;79.02;98545.16;1702445;84;21457;-83
2021/11/18 09:12:49;;;;;;;61.20;33.90;;;;;;;1.53;78.99;98553.89;1702687;83;21040;-84
2021/11/18 09:15:20;;;;;;;61.18;33.10;;;;;;;1.53;78.79;98557.36;1702306;84;21448;-83
2021/11/18 09:17:49;;;;;;;66.35;34.25;;;;;;;1.52;78.82;98554.30;1712497;82;21390;-83
2021/11/18 09:20:20;;;;;;;65.40;35.63;;;;;;;1.52;78.92;98556.02;1728341;83;21056;-83
2021/11/18 09:22:49;;;;;;;66.55;36.63;;;;;;;1.52;78.74;98558.22;1729502;83;21012;-83
2021/11/18 09:25:18;;;;;;;74.25;38.40;;;;;;;1.52;78.76;98549.49;1729595;83;21083;-83
2021/11/18 09:27:49;;;;;;;80.28;41.55;;;;;;;1.54;78.88;98552.58;1718797;83;21008;-83
2021/11/18 09:30:22;;;;;;;81.87;42.98;;;;;;;1.57;78.70;98550.44;1702558;84;21477;-84
2021/11/18 09:32:51;;;;;;;81.65;44.38;;;;;;;1.58;78.68;98553.53;1701216;84;21064;-83
2021/11/18 09:35:25;;;;;;;81.90;43.55;;;;;;;1.58;78.43;98545.24;1702752;84;21088;-84
2021/11/18 09:37:52;;;;;;;82.27;45.48;;;;;;;1.62;78.48;98553.14;1701109;82;21008;-84
2021/11/18 09:40:25;;;;;;;105.92;49.95;;;;;;;1.65;78.48;98548.83;1702059;84;21060;-84
2021/11/18 09:43:47;;;;;;;100.10;52.30;;;;;;;1.69;78.41;98554.98;1700305;84;21501;-83
2021/11/18 09:46:55;;;;;;;101.18;53.00;;;;;;;1.71;78.18;98554.14;1703088;82;21036;-84
2021/11/18 09:49:53;;;;;;;106.80;50.58;;;;;;;1.71;78.09;98549.37;1702190;84;21020;-84
2021/11/18 09:53:02;;;;;;;105.00;53.92;;;;;;;1.69;77.78;98534.08;1702283;84;20996;-84
2021/11/18 09:56:02;;;;;;;104.90;53.15;;;;;;;1.72;77.66;98532.83;1703264;82;21048;-85
2021/11/18 09:59:12;;;;;;;103.92;53.78;;;;;;;1.71;77.60;98534.55;1729072;83;21048;-83
2021/11/18 10:02:18;;;;;;;118.02;54.25;;;;;;;1.76;77.59;98527.20;1729453;83;21010;-84
2021/11/18 10:04:48;;;;;;;121.17;55.50;;;;;;;1.77;77.47;98532.88;1729001;83;21023;-84
2021/11/18 10:07:44;;;;;;;117.33;55.20;;;;;;;1.77;77.30;98535.48;1727726;81;21453;-84
2021/11/18 10:10:23;;;;;;;119.35;56.98;;;;;;;1.75;77.19;98531.58;1729535;83;21434;-82
2021/11/18 10:13:36;;;;;;;125.95;58.35;;;;;;;1.74;77.13;98521.09;1729613;83;21076;-84
2021/11/18 10:16:18;;;;;;;128.87;57.00;;;;;;;1.76;77.07;98525.90;1702919;83;20997;-84
2021/11/18 10:18:57;;;;;;;120.45;58.20;;;;;;;1.80;77.06;98518.55;1702710;84;21429;-84
2021/11/18 10:21:41;;;;;;;122.10;61.00;;;;;;;1.82;76.89;98516.41;1702829;84;21113;-83
2021/11/18 10:24:22;;;;;;;133.63;59.55;;;;;;;1.80;76.94;98506.80;1702727;82;21009;-83
2021/11/18 10:26:54;;;;;;;125.12;60.45;;;;;;;1.83;77.02;98504.23;1701987;84;21473;-84
2021/11/18 10:29:29;;;;;;;127.25;66.17;;;;;;;1.88;76.91;98498.64;1701757;84;21044;-83
2021/11/18 10:32:06;;;;;;;137.07;64.90;;;;;;;1.95;76.87;98498.30;1702443;84;21460;-84
2021/11/18 10:35:00;;;;;;;119.47;60.23;;;;;;;2.00;76.50;98492.70;1703243;82;21016;-84
2021/11/18 10:37:32;;;;;;;116.77;57.83;;;;;;;2.03;76.51;98495.78;1702272;84;21016;-84
2021/11/18 10:40:22;;;;;;;125.97;60.40;;;;;;;2.01;76.09;98493.56;1689630;84;21061;-84
2021/11/18 10:43:13;;;;;;;118.20;55.83;;;;;;;2.06;76.44;98496.69;1674514;85;21030;-84
2021/11/18 10:45:47;;;;;;;115.32;58.40;;;;;;;2.08;76.10;98496.72;1666223;86;21017;-83
2021/11/18 10:48:25;;;;;;;120.33;57.70;;;;;;;2.12;76.27;98498.52;1677940;85;21454;-83
2021/11/18 10:50:58;;;;;;;135.05;60.00;;;;;;;2.18;76.21;98491.16;1683718;85;21045;-84
2021/11/18 10:53:50;;;;;;;114.47;58.87;;;;;;;2.20;75.79;98497.30;1683774;85;21025;-84
2021/11/18 10:56:22;;;;;;;119.93;60.60;;;;;;;2.23;75.92;98493.40;1658136;85;21008;-84
2021/11/18 10:59:10;;;;;;;120.72;58.75;;;;;;;2.24;75.75;98488.19;1628153;88;21033;-84
2021/11/18 11:01:43;;;;;;;126.65;58.60;;;;;;;2.26;75.59;98487.33;1658173;86;21047;-84
2021/11/18 11:04:31;;;;;;;125.72;57.50;;;;;;;2.23;75.37;98494.29;1627960;86;21037;-84
2021/11/18 11:06:58;;;;;;;127.22;58.58;;;;;;;2.23;75.49;98490.36;1674436;85;21014;-85
2021/11/18 11:09:43;;;;;;;124.20;59.73;;;;;;;2.29;75.60;98492.61;1674323;85;21041;-85
2021/11/18 11:12:36;;;;;;;122.05;57.90;;;;;;;2.31;75.01;98489.14;1674322;86;21072;-84
2021/11/18 11:15:42;;;;;;;124.20;56.90;;;;;;;2.29;75.12;98489.57;1666117;85;20992;-84
2021/11/18 11:18:54;;;;;;;117.97;55.03;;;;;;;2.25;74.94;98485.16;1628154;88;21054;-84
2021/11/18 11:21:29;;;;;;;107.72;54.18;;;;;;;2.30;75.36;98485.20;1658273;86;21082;-84
2021/11/18 11:24:19;;;;;;;116.90;56.02;;;;;;;2.34;75.35;98485.69;1675033;85;21009;-83
2021/11/18 11:27:26;;;;;;;103.62;52.43;;;;;;;2.34;75.14;98483.96;1682312;85;21010;-83
2021/11/18 11:29:57;;;;;;;103.97;48.98;;;;;;;2.32;74.91;98475.65;1612518;88;21093;-84
2021/11/18 11:32:38;;;;;;;116.47;53.63;;;;;;;2.31;75.25;98468.64;1665793;85;21017;-84
2021/11/18 11:35:39;;;;;;;110.00;52.10;;;;;;;2.28;75.16;98468.63;1658111;85;21008;-84
2021/11/18 11:38:10;;;;;;;109.52;53.17;;;;;;;2.26;75.06;98471.63;1658149;85;21508;-83
2021/11/18 11:41:13;;;;;;;108.12;53.73;;;;;;;2.23;75.24;98468.13;1636484;84;21469;-84
2021/11/18 11:43:53;;;;;;;112.47;52.48;;;;;;;2.19;75.26;98468.95;1673684;83;21010;-84